Midoey Viking — LGUP — position and weather

sailwx.info

Track history (hours):
 
Tides and Currents Weather Stations Pressure Air Temp Water Temp Dewpoint Dewpoint Depression Visibility Wind Speed Wind Dir Waves Ship Positions

Midoey Viking

Last reported at 2017-Jan-18 12:11 UTC. Time now 2017-Jan-23 04:30 UTC.
Position N 62°42' E 006°39'.

Length 33 m; draft 5.5 m.

Type: Fishing. MMSI: 257465500.

Date/timePositionNaut miles runAvg speedWind from/ knotsBaromVisibWave heightAir tempDewpointWater temp
2017-Jan-18 12:11N 62°42' E 006°39'  
2017-Jan-15 17:33N 62°43' E 006°30'9 8.4
2017-Jan-15 16:32N 62°50' E 006°40'11 8.0
2017-Jan-15 15:13N 62°59' E 006°54'6 8.4
2017-Jan-15 14:33N 63°01' E 007°05'8 8.3
2017-Jan-15 13:34N 63°04' E 007°22'8 7.8
2017-Jan-15 12:34N 63°08' E 007°37'8 7.8
2017-Jan-15 11:33N 63°12' E 007°51'8 8.0
2017-Jan-15 10:33N 63°16' E 008°07'27 8.0
2017-Jan-15 07:10N 63°29' E 009°00'6 9.2
2017-Jan-15 06:33N 63°32' E 009°11'9 8.8
2017-Jan-15 05:33N 63°36' E 009°27'9 8.9
2017-Jan-15 04:34N 63°45' E 009°32'65 8.0
2017-Jan-14 20:26N 64°40' E 010°53'8 9.2
2017-Jan-14 19:33N 64°47' E 011°04'9 8.8
2017-Jan-14 18:33N 64°53' E 011°18'9 9.2
2017-Jan-14 17:33N 64°59' E 011°35'9 9.0
2017-Jan-14 16:33N 65°06' E 011°48'80 8.7
2017-Jan-14 07:20N 66°21' E 012°57'7 9.1
2017-Jan-14 06:34N 66°28' E 012°59'22 8.9
2017-Jan-14 04:04N 66°49' E 013°16'6 8.9
2017-Jan-14 03:24N 66°54' E 013°25'33 8.7
2017-Jan-13 23:33N 67°20' E 014°19'99 8.3
2017-Jan-13 11:34N 68°43' E 016°43'9 8.9
2017-Jan-13 10:33N 68°51' E 016°55'9 8.9
2017-Jan-13 09:33N 68°58' E 017°10'9 9.0
2017-Jan-13 08:34N 69°05' E 017°25'9 9.2
2017-Jan-13 07:34N 69°09' E 017°48'7 6.8
2017-Jan-13 06:33N 69°15' E 017°58'2 0.1
2017-Jan-11 16:09N 69°13' E 017°59'4 7.4
2017-Jan-11 15:34N 69°09' E 017°51'119 9.6
2017-Jan-11 03:15N 67°36' E 014°31'710.1
2017-Jan-11 02:33N 67°29' E 014°31'1010.0
2017-Jan-11 01:33N 67°20' E 014°21'10 9.6
2017-Jan-11 00:33N 67°12' E 014°07'1010.0
2017-Jan-10 23:33N 67°04' E 013°53'10 9.8
2017-Jan-10 22:33N 66°58' E 013°32'19 9.7
2017-Jan-10 20:33N 66°41' E 013°09'10 9.7
2017-Jan-10 19:33N 66°32' E 012°59'10 9.9
2017-Jan-10 18:33N 66°22' E 012°58'10 9.8
2017-Jan-10 17:34N 66°13' E 012°53'10 9.3
2017-Jan-10 16:27N 66°04' E 012°39'45 9.0
2017-Jan-10 11:30N 65°22' E 012°04'9 9.7
2017-Jan-10 10:33N 65°14' E 011°54'10 9.8
2017-Jan-10 09:33N 65°04' E 011°46'10 9.5
2017-Jan-10 08:33N 64°57' E 011°31'1010.3
2017-Jan-10 07:33N 64°51' E 011°13'8410.0
2017-Jan-09 23:14N 63°44' E 009°17'710.9
2017-Jan-09 22:33N 63°36' E 009°16'28 9.3
2017-Jan-09 19:33N 63°21' E 008°23'10 9.9
2017-Jan-09 18:33N 63°15' E 008°06'10 9.7
2017-Jan-09 17:33N 63°11' E 007°47'9 9.3
2017-Jan-09 16:33N 63°06' E 007°30'  
Track history (hours):
 
Tides and Currents Weather Stations Pressure Air Temp Water Temp Dewpoint Dewpoint Depression Visibility Wind Speed Wind Dir Waves Ship Positions

Midoey Viking

Last reported at 2017-Jan-18 12:11 UTC. Time now 2017-Jan-23 04:30 UTC.
Position N 62°42' E 006°39'.

Length 33 m; draft 5.5 m.

Type: Fishing. MMSI: 257465500.

Date/timePositionNaut miles runAvg speedWind from/ knotsBaromVisibWave heightAir tempDewpointWater temp
2017-Jan-18 12:11N 62°42' E 006°39'  
2017-Jan-15 17:33N 62°43' E 006°30'9 8.4
2017-Jan-15 16:32N 62°50' E 006°40'11 8.0
2017-Jan-15 15:13N 62°59' E 006°54'6 8.4
2017-Jan-15 14:33N 63°01' E 007°05'8 8.3
2017-Jan-15 13:34N 63°04' E 007°22'8 7.8
2017-Jan-15 12:34N 63°08' E 007°37'8 7.8
2017-Jan-15 11:33N 63°12' E 007°51'8 8.0
2017-Jan-15 10:33N 63°16' E 008°07'27 8.0
2017-Jan-15 07:10N 63°29' E 009°00'6 9.2
2017-Jan-15 06:33N 63°32' E 009°11'9 8.8
2017-Jan-15 05:33N 63°36' E 009°27'9 8.9
2017-Jan-15 04:34N 63°45' E 009°32'65 8.0
2017-Jan-14 20:26N 64°40' E 010°53'8 9.2
2017-Jan-14 19:33N 64°47' E 011°04'9 8.8
2017-Jan-14 18:33N 64°53' E 011°18'9 9.2
2017-Jan-14 17:33N 64°59' E 011°35'9 9.0
2017-Jan-14 16:33N 65°06' E 011°48'80 8.7
2017-Jan-14 07:20N 66°21' E 012°57'7 9.1
2017-Jan-14 06:34N 66°28' E 012°59'22 8.9
2017-Jan-14 04:04N 66°49' E 013°16'6 8.9
2017-Jan-14 03:24N 66°54' E 013°25'33 8.7
2017-Jan-13 23:33N 67°20' E 014°19'99 8.3
2017-Jan-13 11:34N 68°43' E 016°43'9 8.9
2017-Jan-13 10:33N 68°51' E 016°55'9 8.9
2017-Jan-13 09:33N 68°58' E 017°10'9 9.0
2017-Jan-13 08:34N 69°05' E 017°25'9 9.2
2017-Jan-13 07:34N 69°09' E 017°48'7 6.8
2017-Jan-13 06:33N 69°15' E 017°58'2 0.1
2017-Jan-11 16:09N 69°13' E 017°59'4 7.4
2017-Jan-11 15:34N 69°09' E 017°51'119 9.6
2017-Jan-11 03:15N 67°36' E 014°31'710.1
2017-Jan-11 02:33N 67°29' E 014°31'1010.0
2017-Jan-11 01:33N 67°20' E 014°21'10 9.6
2017-Jan-11 00:33N 67°12' E 014°07'1010.0
2017-Jan-10 23:33N 67°04' E 013°53'10 9.8
2017-Jan-10 22:33N 66°58' E 013°32'19 9.7
2017-Jan-10 20:33N 66°41' E 013°09'10 9.7
2017-Jan-10 19:33N 66°32' E 012°59'10 9.9
2017-Jan-10 18:33N 66°22' E 012°58'10 9.8
2017-Jan-10 17:34N 66°13' E 012°53'10 9.3
2017-Jan-10 16:27N 66°04' E 012°39'45 9.0
2017-Jan-10 11:30N 65°22' E 012°04'9 9.7
2017-Jan-10 10:33N 65°14' E 011°54'10 9.8
2017-Jan-10 09:33N 65°04' E 011°46'10 9.5
2017-Jan-10 08:33N 64°57' E 011°31'1010.3
2017-Jan-10 07:33N 64°51' E 011°13'8410.0
2017-Jan-09 23:14N 63°44' E 009°17'710.9
2017-Jan-09 22:33N 63°36' E 009°16'28 9.3
2017-Jan-09 19:33N 63°21' E 008°23'10 9.9
2017-Jan-09 18:33N 63°15' E 008°06'10 9.7
2017-Jan-09 17:33N 63°11' E 007°47'9 9.3
2017-Jan-09 16:33N 63°06' E 007°30'  

Dump ship's entire track history